Weather observations for the past three days for
Bastrop, Morehouse Memorial Airport
Metric (Imperial)
Date Time (cdt) Wind (kph) Vis. (km) Weather Sky Cond. Temperature (ºC) Relative Humidity Wind Chill (°C) Heat Index (°C) Pressure Precipitation (cm)
Air Dwpt 6 hour altimeter (cm) sea level (mb) 1 hr 3 hr 6 hr
Max. Min.
05 12:10 Calm 0.00 Fair CLR 33.9 22.2 50% 38 76.1 0.0
05 11:50 NE 11 0.00 Fair CLR 33.7 21.9 50% 38 76.12 0.0
05 11:30 Calm 0.00 Fair CLR 33.2 22.2 52% 37 76.12 0.0
05 11:10 Calm 0.00 Fair CLR 33 22.8 55% 38 76.12 0.0
05 10:50 Calm 0.00 Fair CLR 32 22.3 56% 36 76.12 0.0
05 10:30 Calm 0.00 Fair CLR 31.2 22.2 59% 35 76.12 0.0
05 10:10 Calm 0.00 Fair CLR 30.9 22.5 61% 35 76.12 0.0
05 09:50 Calm 0.00 Fair CLR 30.3 22.5 63% 34 76.12 0.0
05 09:30 Calm 0.00 Fair CLR 29.7 22.6 66% 33 76.12 0.0
05 09:10 Calm 0.00 Fair CLR 28.7 22.4 69% 32 76.12 0.0
05 08:50 Calm 0.00 Fair CLR 28 22.6 73% 31 76.12 0.0
05 08:30 Calm 0.00 Fair CLR 27.1 22.7 77% 30 76.12 0.0
05 08:10 Calm 0.00 Partly Cloudy SCT065 25.6 22.8 85% 27 76.12 0.0
05 07:50 Calm 0.00 Mostly Cloudy BKN060 BKN075 24.3 22.8 91% 24 76.12 0.0
05 07:30 Calm 0.00 NULL NULL 23.9 22.5 92% 23 76.12 0.0
05 07:10 Calm 0.00 NULL NULL 23 22.3 96% 76.12 0.0
05 06:50 Calm 0.00 NULL NULL 22.6 22 23.2 22.1 96% 76.12 0.0
05 06:30 Calm 0.00 Mostly Cloudy BKN080 22.6 22 96% 76.1 0.0
05 06:10 Calm 0.00 Mostly Cloudy BKN080 22.6 22 96% 76.07 0.0
05 05:50 Calm 0.00 Mostly Cloudy BKN080 22.7 22 96% 76.07 0.0
05 05:30 Calm 0.00 NULL NULL 22.9 22 95% 76.07 0.0
05 05:10 Calm 0.00 Overcast BKN070 OVC090 23 22.2 95% 76.07 0.0
05 04:50 Calm 0.00 Mostly Cloudy BKN070 22.7 22.1 96% 76.07 0.0
05 04:30 Calm 0.00 NULL NULL 22.3 21.7 96% 76.07 0.0
05 04:10 Calm 0.00 NULL NULL 22.2 21.7 97% 76.07 0.0
05 03:50 Calm 0.00 NULL NULL 22.1 21.6 97% 76.07 0.0
05 03:30 Calm 0.00 NULL NULL 22.4 21.8 96% 76.05 0.0
05 03:10 Calm 0.00 NULL NULL 22.5 21.8 96% 76.05 0.0
05 02:50 Calm 0.00 NULL NULL 22.5 21.9 96% 76.05 0.0
05 02:30 Calm 0.00 NULL NULL 22.6 22 96% 76.02 0.0
05 02:10 Calm 0.00 NULL NULL 22.7 21.9 95% 76.05 0.0
05 01:50 Calm 0.00 NULL NULL 22.8 22 95% 76.05 0.0
05 01:30 Calm 0.00 NULL NULL 23 22 94% 76.05 0.0
05 01:10 Calm 0.00 NULL NULL 23 21.9 94% 76.07 0.0
05 00:50 Calm 0.00 NULL NULL 23.2 22 26.7 23.1 93% 76.05 0.0
05 00:30 Calm 0.00 NULL NULL 23.3 21.9 92% 76.05 0.0
05 00:10 Calm 0.00 NULL NULL 23.5 21.8 90% 76.05 0.0
04 23:50 Calm 0.00 NULL NULL 24 21.9 88% 24 76.07 0.0
04 23:30 Calm 0.00 Fair CLR 24.2 21.7 86% 24 76.07 0.0
04 23:10 Calm 0.00 Fair CLR 24.3 21.6 85% 25 76.07 0.0
04 22:50 Calm 0.00 NULL NULL 24.1 21.8 87% 24 76.07 0.0
04 22:30 Calm 0.00 Fair CLR 24.4 21.7 85% 25 76.07 0.0
04 22:10 Calm 0.00 Fair CLR 24.5 21.8 85% 25 76.07 0.0
04 21:50 Calm 0.00 Fair CLR 25 22 83% 26 76.1 0.0
04 21:30 Calm 0.00 Fair CLR 25.1 22 83% 26 76.07 0.0
04 21:10 Calm 0.00 Fair CLR 25.3 22 82% 26 76.07 0.0
04 20:50 Calm 0.00 Fair CLR 25.2 22.2 84% 26 76.07 0.0
04 20:30 Calm 0.00 Fair CLR 25.2 22.4 85% 26 76.07 0.0
04 20:10 S 6 0.00 Fair CLR 25.7 22.6 83% 27 76.07 0.0
04 19:50 SE 6 0.00 Fair CLR 26 22.9 83% 28 76.07 0.0
04 19:30 S 6 0.00 Fair CLR 26.5 23 81% 29 76.07 0.0
04 19:10 S 6 0.00 Fair CLR 26.6 22.8 80% 29 76.07 0.0
04 18:50 SE 6 0.00 Partly Cloudy SCT080 SCT100 26.5 22.9 36.4 26.4 81% 29 76.07 0.0 0.05
04 18:30 Calm 0.00 Partly Cloudy SCT080 26.5 23 81% 29 76.07 0.0
04 18:10 Calm 0.00 Fair CLR 26.7 23.8 84% 29 76.05 0.0
04 17:50 Calm 0.00 Partly Cloudy SCT090 SCT120 26.6 24.1 86% 29 76.02 0.0 0.05
04 17:30 Calm 0.00 Overcast SCT050 SCT060 OVC100 26.5 23 81% 29 76.05 0.0 0.05
04 17:10 E 6 0.00 Mostly Cloudy SCT050 SCT060 BKN100 29.5 21.6 63% 32 76.02 0.0
04 16:50 E 9 0.00 Partly Cloudy SCT070 32.6 20.9 50% 36 76 0.0
04 16:30 E 19 0.00 Mostly Cloudy SCT070 BKN080 34.3 21.5 47% 38 75.97 0.0
04 16:10 Calm 0.00 Partly Cloudy SCT080 36 21.5 43% 40 75.97 0.0
04 15:50 Calm 0.00 Fair CLR 35.7 21.7 44% 40 75.97 0.0
04 15:30 Calm 0.00 Fair CLR 34.7 22.5 49% 40 76 0.0
04 15:10 Calm 0.00 Fair CLR 35 21.6 46% 39 76.02 0.0
04 14:50 Calm 0.00 Fair CLR 35.5 21.5 44% 40 76.05 0.0
04 14:30 Calm 0.00 Fair CLR 35.6 21.9 45% 40 76.05 0.0
04 14:10 Calm 0.00 Fair CLR 35.7 21.7 44% 40 76.07 0.0
04 13:50 Calm 0.00 Fair CLR 34.9 22.3 48% 40 76.1 0.0
04 13:30 Calm 0.00 Fair CLR 34.4 22.6 50% 39 76.12 0.0
04 13:10 Calm 0.00 Fair CLR 33.4 21.8 51% 37 76.15 0.0
04 12:50 Calm 0.00 Fair CLR 33.5 22.2 34.4 22.5 52% 38 76.17 0.0
04 12:30 Calm 0.00 Fair CLR 33.5 22.6 53% 38 76.17 0.0
04 12:10 Calm 0.00 Fair CLR 33 22.2 53% 37 76.2 0.0
04 11:50 Calm 0.00 Fair CLR 34.4 23.4 53% 40 76.23 0.0
04 11:30 Calm 0.00 Fair CLR 32.9 22.9 56% 38 76.25 0.0
04 11:10 Calm 0.00 Fair CLR 32.1 22.6 57% 36 76.25 0.0
04 10:50 Calm 0.00 Fair CLR 31.9 22.7 58% 36 76.25 0.0
04 10:30 Calm 0.00 Fair CLR 31.6 23.1 61% 36 76.25 0.0
04 10:10 Calm 0.00 Fair CLR 30.4 23 65% 35 76.23 0.0
04 09:30 NW 6 0.00 Fair CLR 29.5 22.9 68% 33 76.23 0.0
04 09:10 NW 6 0.00 Fair CLR 28 22.7 73% 31 76.2 0.0
04 08:50 Calm 0.00 Fair CLR 26.4 22.3 78% 28 76.2 0.0
04 08:30 Calm 0.00 Fair CLR 25.9 22.2 80% 27 76.2 0.0
04 08:10 Calm 0.00 Fair CLR 25.3 22.3 84% 26 76.2 0.0
04 07:50 Calm 0.00 Partly Cloudy SCT065 25 22 83% 26 76.2 0.0
04 07:30 Calm 0.00 NULL NULL 23.4 22.2 93% 76.17 0.0
04 07:10 Calm 0.00 NULL NULL 22.6 21.7 95% 76.17 0.0
04 06:50 Calm 0.00 NULL NULL 22.5 21.5 24.8 22.5 94% 76.15 0.0
04 06:30 Calm 0.00 NULL NULL 22.6 21.6 94% 76.15 0.0
04 06:10 Calm 0.00 Mostly Cloudy BKN080 22.7 21.7 94% 76.15 0.0
04 05:50 Calm 0.00 NULL NULL 22.5 21.5 94% 76.12 0.0
04 05:30 Calm 0.00 NULL NULL 22.9 21.6 92% 76.12 0.0
04 05:10 Calm 0.00 NULL NULL 22.7 21.6 94% 76.12 0.0
04 04:50 Calm 0.00 NULL NULL 23 21.4 91% 76.12 0.0
04 04:30 Calm 0.00 NULL NULL 22.9 21.4 91% 76.12 0.0
04 04:10 Calm 0.00 NULL NULL 23.1 21.5 91% 76.1 0.0
04 03:50 Calm 0.00 NULL NULL 23.8 21.5 87% 76.1 0.0
04 03:30 Calm 0.00 Fair CLR 24.2 21.4 84% 24 76.1 0.0
04 03:10 Calm 0.00 NULL NULL 23.9 21.6 87% 24 76.07 0.0
04 02:50 Calm 0.00 NULL NULL 23.9 21.5 86% 24 76.07 0.0
04 02:30 Calm 0.00 Fair CLR 24.2 21.5 85% 24 76.07 0.0
04 02:10 Calm 0.00 NULL NULL 24.1 21.6 86% 24 76.07 0.0
04 01:50 Calm 0.00 Fair CLR 24.8 21.5 82% 25 76.1 0.0
04 01:30 Calm 0.00 Fair CLR 24.2 21.7 86% 24 76.1 0.0
04 01:10 Calm 0.00 Fair CLR 24.6 21.6 83% 25 76.1 0.0
04 00:50 Calm 0.00 NULL NULL 24.1 21.6 32 24 86% 24 76.1 0.0
04 00:30 Calm 0.00 Fair CLR 24.5 21.6 84% 25 76.07 0.0
04 00:10 Calm 0.00 Fair CLR 24.3 21.7 85% 24 76.07 0.0
03 23:50 Calm 0.00 Fair CLR 24.4 21.7 85% 25 76.07 0.0
03 23:30 Calm 0.00 Fair CLR 24.8 21.7 83% 25 76.07 0.0
03 23:10 Calm 0.00 Fair CLR 25.4 21.6 80% 27 76.07 0.0
03 22:50 Calm 0.00 Fair CLR 26 21.5 76% 28 76.1 0.0
03 22:30 Calm 0.00 Fair CLR 25.5 21.7 80% 27 76.07 0.0
03 22:10 Calm 0.00 Fair CLR 25.8 21.7 78% 27 76.07 0.0
03 21:50 Calm 0.00 Fair CLR 26.7 21.5 73% 29 76.1 0.0
03 21:30 Calm 0.00 Fair CLR 27.4 21.4 70% 30 76.07 0.0
03 21:10 Calm 0.00 Fair CLR 27.7 21.5 69% 30 76.07 0.0
03 20:50 E 7 0.00 Fair CLR 28 21.5 68% 30 76.05 0.0
03 20:30 E 7 0.00 Fair CLR 28.7 21.3 64% 31 76.05 0.0
03 20:10 E 7 0.00 Fair CLR 29.5 21 60% 32 76.05 0.0
03 19:50 E 7 0.00 Fair CLR 30 20.7 57% 32 76.02 0.0
03 19:30 Calm 0.00 Fair CLR 30.6 21 57% 33 76.02 0.0
03 19:10 NE 9 0.00 Fair CLR 31.5 23.6 63% 37 76.02 0.0
03 18:50 Calm 0.00 Fair CLR 32.3 24.7 36 32.3 64% 39 76.02 0.0
03 18:30 Calm 0.00 Fair CLR 33.1 24.1 59% 39 76 0.0
03 18:10 Calm 0.00 Fair CLR 34.5 22.8 51% 40 75.97 0.0
03 17:50 Calm 0.00 Fair CLR 35 21.6 46% 39 76 0.0
03 17:30 Calm 0.00 Fair CLR 35.4 21.6 45% 40 75.97 0.0
03 17:10 Calm 0.00 Fair CLR 35.5 21.8 45% 40 75.97 0.0
03 16:50 Calm 0.00 Fair CLR 35.6 21.9 45% 40 76 0.0
03 16:30 Calm 0.00 Partly Cloudy SCT120 35.4 21.3 44% 39 76 0.0
03 16:10 Calm 0.00 Mostly Cloudy BKN120 35.2 21.2 44% 39 76 0.0
03 15:50 Calm 0.00 Partly Cloudy SCT100 35.4 21.5 44% 39 76.02 0.0
03 15:30 Calm 0.00 Partly Cloudy SCT050 SCT100 35.4 21.9 45% 40 76.05 0.0
03 15:10 Calm 0.00 Partly Cloudy SCT050 35.5 21.7 45% 40 76.07 0.0
03 14:50 Calm 0.00 Fair CLR 35.1 21.9 46% 39 76.07 0.0
03 14:30 Calm 0.00 Fair CLR 35.2 22.3 47% 40 76.1 0.0
03 14:10 Calm 0.00 Fair CLR 34.5 22 48% 39 76.12 0.0
03 13:50 Calm 0.00 Fair CLR 34.4 22.2 49% 39 76.15 0.0
03 13:30 Calm 0.00 Partly Cloudy SCT046 SCT055 SCT075 34.3 22.1 49% 39 76.17 0.0
03 13:10 Calm 0.00 Fair CLR 34.2 22 49% 38 76.17 0.0
03 12:50 Calm 0.00 Fair CLR 34 22.1 50% 38 76.2 0.0
03 12:30 Calm 0.00 Fair CLR 34 22.1 50% 38 76.2 0.0
03 12:10 Calm 0.00 Fair CLR 33.3 21.5 50% 37 76.23 0.0
03 11:50 Calm 0.00 Fair CLR 33 22.1 53% 37 76.25 0.0
03 11:30 Calm 0.00 Fair CLR 32.7 22.1 54% 37 76.28 0.0
03 11:10 Calm 0.00 Fair CLR 32.3 22.4 56% 37 76.28 0.0
03 10:50 Calm 0.00 Fair CLR 31.9 22.4 57% 36 76.28 0.0
03 10:30 Calm 0.00 Fair CLR 31.9 22.4 57% 36 76.28 0.0
03 10:10 Calm 0.00 NULL NULL 31.1 22.3 59% 35 76.28 0.0
03 09:50 Calm 0.00 Fair CLR 30.3 23.1 65% 35 76.28 0.0
03 09:30 Calm 0.00 Fair CLR 29.9 23.5 69% 34 76.28 0.0
03 09:10 Calm 0.00 Fair CLR 28.8 23.4 73% 33 76.28 0.0
03 08:50 Calm 0.00 Fair CLR 28.2 23.6 76% 32 76.28 0.0
03 08:30 Calm 0.00 Fair CLR 27.3 23.8 81% 31 76.3 0.0
03 08:10 Calm 0.00 NULL NULL 26.3 23.6 85% 29 76.3 0.0
03 07:50 Calm 0.00 NULL NULL 25.4 23.8 91% 27 76.3 0.0
03 07:30 Calm 0.00 NULL NULL 24 23.5 97% 23 76.28 0.0
03 07:10 Calm 0.00 NULL NULL 23.2 22.7 97% 76.28 0.0
03 06:50 Calm 0.00 NULL NULL 23 22.4 25 22.8 96% 76.28 0.0
03 06:30 Calm 0.00 NULL NULL 23.1 22.5 96% 76.25 0.0
03 06:10 Calm 0.00 NULL NULL 23 22.4 96% 76.25 0.0
03 05:50 Calm 0.00 NULL NULL 22.9 22.3 96% 76.23 0.0
03 05:30 Calm 0.00 NULL NULL 23.1 22.5 96% 76.2 0.0
03 05:10 Calm 0.00 NULL NULL 23.1 22.5 96% 76.2 0.0
03 04:50 Calm 0.00 NULL NULL 23.3 22.7 96% 76.2 0.0
03 04:30 Calm 0.00 NULL NULL 23 22.4 96% 76.2 0.0
03 04:10 Calm 0.00 NULL NULL 23.5 22.7 95% 76.2 0.0
03 03:50 Calm 0.00 NULL NULL 23.8 23 95% 76.2 0.0
03 03:30 Calm 0.00 NULL NULL 23.7 23 96% 76.2 0.0
03 03:10 Calm 0.00 NULL NULL 23.8 23 95% 76.17 0.0
03 02:50 Calm 0.00 NULL NULL 24 22.8 93% 23 76.17 0.0
03 02:30 Calm 0.00 NULL NULL 24 22.8 93% 23 76.15 0.0
03 02:10 Calm 0.00 NULL NULL 24.1 22.6 91% 24 76.15 0.0
03 01:50 Calm 0.00 NULL NULL 24.4 22.9 91% 24 76.17 0.0
03 01:30 Calm 0.00 NULL NULL 24.5 22.7 90% 25 76.17 0.0
03 01:10 Calm 0.00 NULL NULL 25 22.7 87% 26 76.17 0.0
03 00:50 Calm 0.00 NULL NULL 24.4 22.7 31.1 24.1 90% 24 76.2 0.0
03 00:30 Calm 0.00 NULL NULL 24.5 22.7 90% 25 76.2 0.0
03 00:10 Calm 0.00 NULL NULL 24.6 22.6 89% 25 76.2 0.0
02 23:50 Calm 0.00 NULL NULL 24.8 22.8 89% 25 76.2 0.0
02 23:30 Calm 0.00 NULL NULL 24.5 22.8 90% 25 76.2 0.0
02 23:10 Calm 0.00 NULL NULL 25.1 22.8 87% 26 76.2 0.0
02 22:50 Calm 0.00 Fair CLR 25.9 23 84% 28 76.2 0.0
02 22:30 Calm 0.00 NULL NULL 25 23.2 90% 26 76.2 0.0
02 22:10 Calm 0.00 NULL NULL 24.6 23.2 92% 25 76.2 0.0
02 21:50 Calm 0.00 NULL NULL 25.1 23 88% 26 76.2 0.0
02 21:30 Calm 0.00 NULL NULL 25.7 23.2 86% 27 76.2 0.0
02 21:10 Calm 0.00 NULL NULL 25.5 23.2 87% 27 76.17 0.0
02 20:50 Calm 0.00 Fair CLR 26.2 23.2 84% 28 76.15 0.0
02 20:30 Calm 0.00 Fair CLR 27.7 23.2 77% 31 76.15 0.0
02 20:10 Calm 0.00 Fair CLR 28.6 23.3 73% 32 76.15 0.0
02 19:50 Calm 0.00 Fair CLR 29.1 23.2 71% 33 76.17 0.0
02 19:30 Calm 0.00 Fair CLR 29.5 23.5 70% 34 76.15 0.0
02 19:10 Calm 0.00 Fair CLR 29.7 23.4 69% 34 76.12 0.0
02 18:50 Calm 0.00 Fair CLR 31 23 35.7 30.2 62% 35 76.12 0.0
02 18:30 Calm 0.00 Fair CLR 30.5 23.4 66% 35 76.1 0.0
02 18:10 Calm 0.00 Fair CLR 32.2 22.9 58% 37 76.1 0.0
02 17:50 Calm 0.00 Fair CLR 32.7 22.3 54% 37 76.07 0.0
02 17:30 Calm 0.00 Fair CLR 33.9 21.4 48% 38 76.07 0.0
02 17:10 Calm 0.00 Fair CLR 35.5 21.4 44% 39 76.07 0.0
02 16:50 Calm 0.00 Fair CLR 35.5 21.1 43% 39 76.1 0.0
02 16:30 Calm 0.00 Partly Cloudy SCT060 35 21.3 45% 39 76.12 0.0
02 16:10 Calm 0.00 Partly Cloudy SCT060 35.2 21.5 45% 39 76.15 0.0
02 15:50 Calm 0.00 Partly Cloudy SCT060 35.3 21.6 45% 39 76.17 0.0
02 15:30 Calm 0.00 Partly Cloudy SCT050 34.1 21.5 48% 38 76.17 0.0
02 15:10 Calm 0.00 Partly Cloudy SCT050 34.9 21.5 46% 39 76.2 0.0
02 14:50 Calm 0.00 Partly Cloudy SCT050 35.1 21.8 46% 39 76.2 0.0
02 14:30 Calm 0.00 Fair CLR 35 21.9 46% 39 76.2 0.0
02 14:10 Calm 0.00 Partly Cloudy SCT049 34.8 21.9 47% 39 76.23 0.0
02 13:50 Calm 0.00 Partly Cloudy SCT049 34.6 22.1 48% 39 76.25 0.0
02 13:30 Calm 0.00 Partly Cloudy SCT045 34.3 21.7 48% 38 76.25 0.0
02 13:10 Calm 0.00 Partly Cloudy SCT045 34.1 22.1 50% 38 76.28 0.0
02 12:50 SE 6 0.00 Partly Cloudy SCT045 33 21.9 33.5 22.6 52% 37 76.3 0.0
Date Time (cdt) Wind (kph) Vis. (km) Weather Sky Cond. Air Dwpt Max. Min. Relative Humidity Wind Chill (°C) Heat Index (°C) altimeter (cm) sea level (mb) 1 hr 3 hr 6 hr
6 hour
Temperature (ºC) Pressure Precipitation (cm)